sensor_id;sensor_type;location;lat;lon;timestamp;P1;durP1;ratioP1;P2;durP2;ratioP2
52210;SDS011;38179;52.756;6.906;2022-09-14T00:00:28;18.45;;;16.98;;
52210;SDS011;38179;52.756;6.906;2022-09-14T00:02:54;18.33;;;16.90;;
52210;SDS011;38179;52.756;6.906;2022-09-14T00:05:20;18.35;;;16.83;;
52210;SDS011;38179;52.756;6.906;2022-09-14T00:07:46;18.45;;;16.98;;
52210;SDS011;38179;52.756;6.906;2022-09-14T00:10:12;19.05;;;17.40;;
52210;SDS011;38179;52.756;6.906;2022-09-14T00:12:38;19.35;;;17.58;;
52210;SDS011;38179;52.756;6.906;2022-09-14T00:15:04;19.33;;;17.63;;
52210;SDS011;38179;52.756;6.906;2022-09-14T00:17:31;18.42;;;17.02;;
52210;SDS011;38179;52.756;6.906;2022-09-14T00:19:58;18.73;;;16.75;;
52210;SDS011;38179;52.756;6.906;2022-09-14T00:22:25;18.55;;;17.08;;
52210;SDS011;38179;52.756;6.906;2022-09-14T00:24:51;17.88;;;16.55;;
52210;SDS011;38179;52.756;6.906;2022-09-14T00:27:17;18.27;;;16.88;;
52210;SDS011;38179;52.756;6.906;2022-09-14T00:29:43;19.42;;;17.70;;
52210;SDS011;38179;52.756;6.906;2022-09-14T00:32:10;18.42;;;17.02;;
52210;SDS011;38179;52.756;6.906;2022-09-14T00:34:36;18.48;;;16.77;;
52210;SDS011;38179;52.756;6.906;2022-09-14T00:37:01;19.65;;;17.73;;
52210;SDS011;38179;52.756;6.906;2022-09-14T00:39:27;18.45;;;16.95;;
52210;SDS011;38179;52.756;6.906;2022-09-14T00:41:53;18.73;;;17.05;;
52210;SDS011;38179;52.756;6.906;2022-09-14T00:46:49;19.70;;;18.02;;
52210;SDS011;38179;52.756;6.906;2022-09-14T00:51:52;18.67;;;17.17;;
52210;SDS011;38179;52.756;6.906;2022-09-14T00:56:54;17.67;;;16.23;;
52210;SDS011;38179;52.756;6.906;2022-09-14T01:01:51;18.83;;;17.02;;
52210;SDS011;38179;52.756;6.906;2022-09-14T01:04:18;18.23;;;16.83;;
52210;SDS011;38179;52.756;6.906;2022-09-14T01:09:34;17.88;;;16.58;;
52210;SDS011;38179;52.756;6.906;2022-09-14T01:12:31;18.30;;;16.73;;
52210;SDS011;38179;52.756;6.906;2022-09-14T01:20:44;18.73;;;17.13;;
52210;SDS011;38179;52.756;6.906;2022-09-14T01:23:26;18.58;;;17.08;;
52210;SDS011;38179;52.756;6.906;2022-09-14T01:31:28;17.58;;;16.17;;
52210;SDS011;38179;52.756;6.906;2022-09-14T01:34:16;18.05;;;16.60;;
52210;SDS011;38179;52.756;6.906;2022-09-14T01:36:49;18.27;;;16.77;;
52210;SDS011;38179;52.756;6.906;2022-09-14T01:39:22;18.52;;;16.95;;
52210;SDS011;38179;52.756;6.906;2022-09-14T01:41:48;17.55;;;16.15;;
52210;SDS011;38179;52.756;6.906;2022-09-14T01:44:33;17.60;;;16.20;;
52210;SDS011;38179;52.756;6.906;2022-09-14T01:47:06;17.55;;;16.35;;
52210;SDS011;38179;52.756;6.906;2022-09-14T01:49:48;17.95;;;16.48;;
52210;SDS011;38179;52.756;6.906;2022-09-14T01:52:24;18.15;;;16.75;;
52210;SDS011;38179;52.756;6.906;2022-09-14T01:58:07;17.83;;;16.42;;
52210;SDS011;38179;52.756;6.906;2022-09-14T02:00:40;18.33;;;16.75;;
52210;SDS011;38179;52.756;6.906;2022-09-14T02:03:15;17.30;;;15.90;;
52210;SDS011;38179;52.756;6.906;2022-09-14T02:08:21;18.40;;;17.02;;
52210;SDS011;38179;52.756;6.906;2022-09-14T02:10:48;18.10;;;16.63;;
52210;SDS011;38179;52.756;6.906;2022-09-14T02:13:14;17.80;;;16.30;;
52210;SDS011;38179;52.756;6.906;2022-09-14T02:15:41;18.85;;;17.08;;
52210;SDS011;38179;52.756;6.906;2022-09-14T02:18:07;18.55;;;17.00;;
52210;SDS011;38179;52.756;6.906;2022-09-14T02:23:05;17.48;;;16.08;;
52210;SDS011;38179;52.756;6.906;2022-09-14T02:25:31;17.73;;;16.42;;
52210;SDS011;38179;52.756;6.906;2022-09-14T02:27:59;18.02;;;16.52;;
52210;SDS011;38179;52.756;6.906;2022-09-14T02:30:25;17.13;;;15.88;;
52210;SDS011;38179;52.756;6.906;2022-09-14T02:33:02;17.20;;;15.88;;
52210;SDS011;38179;52.756;6.906;2022-09-14T02:35:47;17.73;;;16.33;;
52210;SDS011;38179;52.756;6.906;2022-09-14T02:46:21;17.73;;;16.33;;
52210;SDS011;38179;52.756;6.906;2022-09-14T02:54:32;17.80;;;16.20;;
52210;SDS011;38179;52.756;6.906;2022-09-14T02:57:14;18.70;;;16.98;;
52210;SDS011;38179;52.756;6.906;2022-09-14T02:59:40;18.40;;;16.83;;
52210;SDS011;38179;52.756;6.906;2022-09-14T03:02:06;18.38;;;16.98;;
52210;SDS011;38179;52.756;6.906;2022-09-14T03:04:32;18.73;;;17.25;;
52210;SDS011;38179;52.756;6.906;2022-09-14T03:06:58;18.55;;;16.85;;
52210;SDS011;38179;52.756;6.906;2022-09-14T03:09:24;18.08;;;16.58;;
52210;SDS011;38179;52.756;6.906;2022-09-14T03:11:50;18.35;;;16.85;;
52210;SDS011;38179;52.756;6.906;2022-09-14T03:14:16;18.27;;;16.85;;
52210;SDS011;38179;52.756;6.906;2022-09-14T03:16:42;18.05;;;16.65;;
52210;SDS011;38179;52.756;6.906;2022-09-14T03:19:08;18.15;;;16.55;;
52210;SDS011;38179;52.756;6.906;2022-09-14T03:21:39;17.90;;;16.40;;
52210;SDS011;38179;52.756;6.906;2022-09-14T03:24:05;18.17;;;16.77;;
52210;SDS011;38179;52.756;6.906;2022-09-14T03:26:31;18.58;;;16.98;;
52210;SDS011;38179;52.756;6.906;2022-09-14T03:31:27;17.38;;;15.98;;
52210;SDS011;38179;52.756;6.906;2022-09-14T03:33:53;18.38;;;16.90;;
52210;SDS011;38179;52.756;6.906;2022-09-14T03:36:21;18.23;;;16.90;;
52210;SDS011;38179;52.756;6.906;2022-09-14T03:38:48;17.75;;;16.45;;
52210;SDS011;38179;52.756;6.906;2022-09-14T03:41:16;18.73;;;17.13;;
52210;SDS011;38179;52.756;6.906;2022-09-14T03:43:43;17.88;;;16.58;;
52210;SDS011;38179;52.756;6.906;2022-09-14T03:46:13;18.15;;;16.85;;
52210;SDS011;38179;52.756;6.906;2022-09-14T03:48:47;19.10;;;17.45;;
52210;SDS011;38179;52.756;6.906;2022-09-14T03:51:13;19.13;;;17.73;;
52210;SDS011;38179;52.756;6.906;2022-09-14T03:53:40;18.63;;;17.13;;
52210;SDS011;38179;52.756;6.906;2022-09-14T03:56:07;18.58;;;17.17;;
52210;SDS011;38179;52.756;6.906;2022-09-14T03:58:34;17.92;;;16.63;;
52210;SDS011;38179;52.756;6.906;2022-09-14T04:01:02;17.80;;;16.40;;
52210;SDS011;38179;52.756;6.906;2022-09-14T04:03:30;18.45;;;16.88;;
52210;SDS011;38179;52.756;6.906;2022-09-14T04:05:57;20.73;;;17.25;;
52210;SDS011;38179;52.756;6.906;2022-09-14T04:08:23;18.58;;;17.15;;
52210;SDS011;38179;52.756;6.906;2022-09-14T04:10:49;17.65;;;16.25;;
52210;SDS011;38179;52.756;6.906;2022-09-14T04:13:15;17.50;;;16.20;;
52210;SDS011;38179;52.756;6.906;2022-09-14T04:15:41;17.73;;;16.35;;
52210;SDS011;38179;52.756;6.906;2022-09-14T04:18:07;17.10;;;15.80;;
52210;SDS011;38179;52.756;6.906;2022-09-14T04:20:33;18.90;;;17.17;;
52210;SDS011;38179;52.756;6.906;2022-09-14T04:22:59;18.95;;;17.55;;
52210;SDS011;38179;52.756;6.906;2022-09-14T04:25:25;18.45;;;17.05;;
52210;SDS011;38179;52.756;6.906;2022-09-14T04:27:51;18.77;;;17.17;;
52210;SDS011;38179;52.756;6.906;2022-09-14T04:30:18;18.63;;;17.13;;
52210;SDS011;38179;52.756;6.906;2022-09-14T04:32:45;18.05;;;16.48;;
52210;SDS011;38179;52.756;6.906;2022-09-14T04:35:11;17.83;;;16.35;;
52210;SDS011;38179;52.756;6.906;2022-09-14T04:37:37;18.70;;;17.30;;
52210;SDS011;38179;52.756;6.906;2022-09-14T04:40:03;18.30;;;16.80;;
52210;SDS011;38179;52.756;6.906;2022-09-14T04:42:29;19.35;;;17.77;;
52210;SDS011;38179;52.756;6.906;2022-09-14T04:44:55;18.17;;;16.88;;
52210;SDS011;38179;52.756;6.906;2022-09-14T04:47:21;19.75;;;17.98;;
52210;SDS011;38179;52.756;6.906;2022-09-14T04:49:47;18.92;;;17.13;;
52210;SDS011;38179;52.756;6.906;2022-09-14T04:52:13;19.80;;;18.13;;
52210;SDS011;38179;52.756;6.906;2022-09-14T04:54:39;19.05;;;17.52;;
52210;SDS011;38179;52.756;6.906;2022-09-14T04:57:05;18.98;;;17.48;;
52210;SDS011;38179;52.756;6.906;2022-09-14T04:59:31;19.52;;;17.85;;
52210;SDS011;38179;52.756;6.906;2022-09-14T05:01:56;19.13;;;17.40;;
52210;SDS011;38179;52.756;6.906;2022-09-14T05:04:22;19.25;;;17.63;;
52210;SDS011;38179;52.756;6.906;2022-09-14T05:06:48;18.27;;;16.88;;
52210;SDS011;38179;52.756;6.906;2022-09-14T05:09:16;19.02;;;17.42;;
52210;SDS011;38179;52.756;6.906;2022-09-14T05:11:42;19.60;;;18.10;;
52210;SDS011;38179;52.756;6.906;2022-09-14T05:14:12;18.80;;;17.25;;
52210;SDS011;38179;52.756;6.906;2022-09-14T05:16:39;19.23;;;17.63;;
52210;SDS011;38179;52.756;6.906;2022-09-14T05:19:07;18.73;;;17.33;;
52210;SDS011;38179;52.756;6.906;2022-09-14T05:21:35;18.27;;;16.67;;
52210;SDS011;38179;52.756;6.906;2022-09-14T05:24:10;20.33;;;18.35;;
52210;SDS011;38179;52.756;6.906;2022-09-14T05:26:41;18.67;;;16.92;;
52210;SDS011;38179;52.756;6.906;2022-09-14T05:29:15;18.88;;;17.33;;
52210;SDS011;38179;52.756;6.906;2022-09-14T05:31:42;18.85;;;17.08;;
52210;SDS011;38179;52.756;6.906;2022-09-14T05:34:09;19.40;;;17.80;;
52210;SDS011;38179;52.756;6.906;2022-09-14T05:36:36;19.35;;;17.40;;
52210;SDS011;38179;52.756;6.906;2022-09-14T05:39:03;19.50;;;18.00;;
52210;SDS011;38179;52.756;6.906;2022-09-14T05:41:29;18.30;;;16.90;;
52210;SDS011;38179;52.756;6.906;2022-09-14T05:43:56;19.30;;;17.70;;
52210;SDS011;38179;52.756;6.906;2022-09-14T05:46:23;17.85;;;16.45;;
52210;SDS011;38179;52.756;6.906;2022-09-14T05:48:49;19.40;;;17.35;;
52210;SDS011;38179;52.756;6.906;2022-09-14T05:51:16;18.50;;;16.90;;
52210;SDS011;38179;52.756;6.906;2022-09-14T05:53:48;19.42;;;17.52;;
52210;SDS011;38179;52.756;6.906;2022-09-14T05:56:19;19.02;;;17.45;;
52210;SDS011;38179;52.756;6.906;2022-09-14T05:58:46;19.38;;;17.67;;
52210;SDS011;38179;52.756;6.906;2022-09-14T06:03:40;19.08;;;17.48;;
52210;SDS011;38179;52.756;6.906;2022-09-14T06:06:07;19.00;;;17.50;;
52210;SDS011;38179;52.756;6.906;2022-09-14T06:08:35;19.30;;;17.60;;
52210;SDS011;38179;52.756;6.906;2022-09-14T06:11:02;18.52;;;16.92;;
52210;SDS011;38179;52.756;6.906;2022-09-14T06:13:33;18.23;;;16.83;;
52210;SDS011;38179;52.756;6.906;2022-09-14T06:16:00;19.35;;;17.58;;
52210;SDS011;38179;52.756;6.906;2022-09-14T06:18:35;20.33;;;18.25;;
52210;SDS011;38179;52.756;6.906;2022-09-14T06:21:02;18.45;;;16.85;;
52210;SDS011;38179;52.756;6.906;2022-09-14T06:23:29;18.70;;;17.13;;
52210;SDS011;38179;52.756;6.906;2022-09-14T06:25:57;19.60;;;17.75;;
52210;SDS011;38179;52.756;6.906;2022-09-14T06:28:24;18.77;;;16.80;;
52210;SDS011;38179;52.756;6.906;2022-09-14T06:30:52;19.25;;;17.55;;
52210;SDS011;38179;52.756;6.906;2022-09-14T06:33:20;19.17;;;17.50;;
52210;SDS011;38179;52.756;6.906;2022-09-14T06:35:57;18.98;;;17.23;;
52210;SDS011;38179;52.756;6.906;2022-09-14T06:38:25;19.88;;;17.77;;
52210;SDS011;38179;52.756;6.906;2022-09-14T06:40:55;18.60;;;16.98;;
52210;SDS011;38179;52.756;6.906;2022-09-14T06:43:27;18.15;;;16.60;;
52210;SDS011;38179;52.756;6.906;2022-09-14T06:45:58;19.63;;;17.92;;
52210;SDS011;38179;52.756;6.906;2022-09-14T06:48:29;19.98;;;17.98;;
52210;SDS011;38179;52.756;6.906;2022-09-14T06:50:56;19.60;;;17.85;;
52210;SDS011;38179;52.756;6.906;2022-09-14T06:53:22;19.75;;;18.02;;
52210;SDS011;38179;52.756;6.906;2022-09-14T06:55:49;18.50;;;17.05;;
52210;SDS011;38179;52.756;6.906;2022-09-14T06:58:15;18.30;;;16.73;;
52210;SDS011;38179;52.756;6.906;2022-09-14T07:00:44;18.60;;;17.00;;
52210;SDS011;38179;52.756;6.906;2022-09-14T07:03:10;19.13;;;17.48;;
52210;SDS011;38179;52.756;6.906;2022-09-14T07:05:36;18.35;;;16.85;;
52210;SDS011;38179;52.756;6.906;2022-09-14T07:08:02;18.60;;;17.00;;
52210;SDS011;38179;52.756;6.906;2022-09-14T07:10:28;19.38;;;17.77;;
52210;SDS011;38179;52.756;6.906;2022-09-14T07:12:54;19.30;;;17.90;;
52210;SDS011;38179;52.756;6.906;2022-09-14T07:15:21;18.38;;;16.95;;
52210;SDS011;38179;52.756;6.906;2022-09-14T07:17:47;18.85;;;17.35;;
52210;SDS011;38179;52.756;6.906;2022-09-14T07:20:13;18.70;;;17.08;;
52210;SDS011;38179;52.756;6.906;2022-09-14T07:22:40;19.88;;;18.00;;
52210;SDS011;38179;52.756;6.906;2022-09-14T07:25:07;19.15;;;17.40;;
52210;SDS011;38179;52.756;6.906;2022-09-14T07:27:34;19.50;;;17.80;;
52210;SDS011;38179;52.756;6.906;2022-09-14T07:30:05;21.17;;;19.15;;
52210;SDS011;38179;52.756;6.906;2022-09-14T07:32:31;18.88;;;17.17;;
52210;SDS011;38179;52.756;6.906;2022-09-14T07:34:58;18.58;;;16.92;;
52210;SDS011;38179;52.756;6.906;2022-09-14T07:37:24;18.85;;;17.15;;
52210;SDS011;38179;52.756;6.906;2022-09-14T07:39:50;18.55;;;17.00;;
52210;SDS011;38179;52.756;6.906;2022-09-14T07:42:16;19.17;;;17.35;;
52210;SDS011;38179;52.756;6.906;2022-09-14T07:44:42;19.27;;;17.33;;
52210;SDS011;38179;52.756;6.906;2022-09-14T07:47:08;19.58;;;17.73;;
52210;SDS011;38179;52.756;6.906;2022-09-14T07:49:34;18.40;;;17.00;;
52210;SDS011;38179;52.756;6.906;2022-09-14T07:52:00;18.38;;;16.98;;
52210;SDS011;38179;52.756;6.906;2022-09-14T07:54:26;19.63;;;17.08;;
52210;SDS011;38179;52.756;6.906;2022-09-14T07:56:53;19.50;;;17.73;;
52210;SDS011;38179;52.756;6.906;2022-09-14T07:59:19;19.42;;;17.70;;
52210;SDS011;38179;52.756;6.906;2022-09-14T08:01:45;18.80;;;17.13;;
52210;SDS011;38179;52.756;6.906;2022-09-14T08:04:10;18.38;;;16.88;;
52210;SDS011;38179;52.756;6.906;2022-09-14T08:06:36;18.45;;;16.75;;
52210;SDS011;38179;52.756;6.906;2022-09-14T08:09:05;18.40;;;16.88;;
52210;SDS011;38179;52.756;6.906;2022-09-14T08:11:35;18.58;;;16.90;;
52210;SDS011;38179;52.756;6.906;2022-09-14T08:14:02;18.55;;;17.10;;
52210;SDS011;38179;52.756;6.906;2022-09-14T08:16:30;18.17;;;16.55;;
52210;SDS011;38179;52.756;6.906;2022-09-14T08:18:59;18.20;;;16.63;;
52210;SDS011;38179;52.756;6.906;2022-09-14T08:21:30;18.85;;;17.27;;
52210;SDS011;38179;52.756;6.906;2022-09-14T08:23:57;18.05;;;16.52;;
52210;SDS011;38179;52.756;6.906;2022-09-14T08:26:26;18.83;;;16.98;;
52210;SDS011;38179;52.756;6.906;2022-09-14T08:28:53;18.27;;;16.77;;
52210;SDS011;38179;52.756;6.906;2022-09-14T08:31:22;17.95;;;16.42;;
52210;SDS011;38179;52.756;6.906;2022-09-14T08:33:53;18.65;;;17.08;;
52210;SDS011;38179;52.756;6.906;2022-09-14T08:36:25;18.35;;;16.98;;
52210;SDS011;38179;52.756;6.906;2022-09-14T08:41:23;18.55;;;16.95;;
52210;SDS011;38179;52.756;6.906;2022-09-14T08:44:05;19.27;;;17.27;;
52210;SDS011;38179;52.756;6.906;2022-09-14T08:51:44;18.25;;;16.77;;
52210;SDS011;38179;52.756;6.906;2022-09-14T08:54:11;17.77;;;16.27;;
52210;SDS011;38179;52.756;6.906;2022-09-14T08:56:42;17.95;;;16.48;;
52210;SDS011;38179;52.756;6.906;2022-09-14T08:59:17;18.05;;;16.75;;
52210;SDS011;38179;52.756;6.906;2022-09-14T09:02:22;17.85;;;16.35;;
52210;SDS011;38179;52.756;6.906;2022-09-14T09:07:58;18.05;;;16.38;;
52210;SDS011;38179;52.756;6.906;2022-09-14T09:10:30;17.80;;;16.35;;
52210;SDS011;38179;52.756;6.906;2022-09-14T09:12:59;18.63;;;16.98;;
52210;SDS011;38179;52.756;6.906;2022-09-14T09:15:33;19.20;;;17.38;;
52210;SDS011;38179;52.756;6.906;2022-09-14T09:18:07;19.25;;;17.42;;
52210;SDS011;38179;52.756;6.906;2022-09-14T09:20:41;18.38;;;16.98;;
52210;SDS011;38179;52.756;6.906;2022-09-14T09:23:15;19.92;;;17.08;;
52210;SDS011;38179;52.756;6.906;2022-09-14T09:28:18;18.35;;;16.85;;
52210;SDS011;38179;52.756;6.906;2022-09-14T09:30:45;18.52;;;17.13;;
52210;SDS011;38179;52.756;6.906;2022-09-14T09:33:16;17.92;;;16.60;;
52210;SDS011;38179;52.756;6.906;2022-09-14T09:35:47;18.13;;;16.65;;
52210;SDS011;38179;52.756;6.906;2022-09-14T09:38:15;18.70;;;17.20;;
52210;SDS011;38179;52.756;6.906;2022-09-14T09:40:47;18.80;;;17.08;;
52210;SDS011;38179;52.756;6.906;2022-09-14T09:43:35;18.08;;;16.75;;
52210;SDS011;38179;52.756;6.906;2022-09-14T09:46:29;18.65;;;17.10;;
52210;SDS011;38179;52.756;6.906;2022-09-14T09:48:57;18.73;;;17.13;;
52210;SDS011;38179;52.756;6.906;2022-09-14T09:51:28;18.10;;;16.65;;
52210;SDS011;38179;52.756;6.906;2022-09-14T09:54:04;19.20;;;17.52;;
52210;SDS011;38179;52.756;6.906;2022-09-14T09:56:34;18.85;;;17.15;;
52210;SDS011;38179;52.756;6.906;2022-09-14T09:59:20;19.15;;;17.77;;
52210;SDS011;38179;52.756;6.906;2022-09-14T10:01:53;18.13;;;16.83;;
52210;SDS011;38179;52.756;6.906;2022-09-14T10:04:22;18.73;;;17.33;;
52210;SDS011;38179;52.756;6.906;2022-09-14T10:06:52;18.50;;;17.00;;
52210;SDS011;38179;52.756;6.906;2022-09-14T10:09:19;18.60;;;16.85;;
52210;SDS011;38179;52.756;6.906;2022-09-14T10:11:57;18.65;;;17.25;;
52210;SDS011;38179;52.756;6.906;2022-09-14T10:14:27;18.48;;;16.92;;
52210;SDS011;38179;52.756;6.906;2022-09-14T10:17:06;18.67;;;17.20;;
52210;SDS011;38179;52.756;6.906;2022-09-14T10:19:47;20.27;;;17.80;;
52210;SDS011;38179;52.756;6.906;2022-09-14T10:22:26;18.23;;;16.73;;
52210;SDS011;38179;52.756;6.906;2022-09-14T10:25:03;19.13;;;17.60;;
52210;SDS011;38179;52.756;6.906;2022-09-14T10:27:55;18.90;;;17.50;;
52210;SDS011;38179;52.756;6.906;2022-09-14T10:30:27;19.30;;;17.75;;
52210;SDS011;38179;52.756;6.906;2022-09-14T10:33:02;18.60;;;17.15;;
52210;SDS011;38179;52.756;6.906;2022-09-14T10:38:29;18.52;;;17.02;;
52210;SDS011;38179;52.756;6.906;2022-09-14T10:52:11;18.35;;;17.00;;
52210;SDS011;38179;52.756;6.906;2022-09-14T11:00:10;18.90;;;17.50;;
52210;SDS011;38179;52.756;6.906;2022-09-14T11:05:28;19.08;;;17.50;;
52210;SDS011;38179;52.756;6.906;2022-09-14T11:08:03;18.88;;;17.45;;
52210;SDS011;38179;52.756;6.906;2022-09-14T11:13:38;19.10;;;17.55;;
52210;SDS011;38179;52.756;6.906;2022-09-14T11:16:31;18.23;;;16.88;;
52210;SDS011;38179;52.756;6.906;2022-09-14T11:19:21;18.95;;;17.45;;
52210;SDS011;38179;52.756;6.906;2022-09-14T11:24:56;19.55;;;17.85;;
52210;SDS011;38179;52.756;6.906;2022-09-14T11:30:15;19.10;;;17.60;;
52210;SDS011;38179;52.756;6.906;2022-09-14T11:35:21;19.67;;;17.98;;
52210;SDS011;38179;52.756;6.906;2022-09-14T11:40:57;19.27;;;17.77;;
52210;SDS011;38179;52.756;6.906;2022-09-14T11:43:56;19.35;;;17.60;;
52210;SDS011;38179;52.756;6.906;2022-09-14T11:46:40;19.10;;;17.65;;
52210;SDS011;38179;52.756;6.906;2022-09-14T11:51:45;19.55;;;17.77;;
52210;SDS011;38179;52.756;6.906;2022-09-14T11:54:18;19.05;;;17.65;;
52210;SDS011;38179;52.756;6.906;2022-09-14T11:56:50;19.60;;;18.00;;
52210;SDS011;38179;52.756;6.906;2022-09-14T11:59:36;19.45;;;17.95;;
52210;SDS011;38179;52.756;6.906;2022-09-14T12:17:52;19.52;;;17.77;;
52210;SDS011;38179;52.756;6.906;2022-09-14T12:23:12;20.08;;;18.35;;
52210;SDS011;38179;52.756;6.906;2022-09-14T12:28:47;19.85;;;18.13;;
52210;SDS011;38179;52.756;6.906;2022-09-14T12:34:23;19.48;;;18.08;;
52210;SDS011;38179;52.756;6.906;2022-09-14T12:39:20;19.80;;;18.20;;
52210;SDS011;38179;52.756;6.906;2022-09-14T12:49:25;21.10;;;18.88;;
52210;SDS011;38179;52.756;6.906;2022-09-14T12:51:53;20.02;;;18.48;;
52210;SDS011;38179;52.756;6.906;2022-09-14T12:59:34;19.08;;;17.67;;
52210;SDS011;38179;52.756;6.906;2022-09-14T13:02:38;20.20;;;18.40;;
52210;SDS011;38179;52.756;6.906;2022-09-14T13:05:27;19.85;;;18.25;;
52210;SDS011;38179;52.756;6.906;2022-09-14T13:07:54;19.38;;;17.58;;
52210;SDS011;38179;52.756;6.906;2022-09-14T13:12:55;19.85;;;18.35;;
52210;SDS011;38179;52.756;6.906;2022-09-14T13:15:25;19.90;;;18.33;;
52210;SDS011;38179;52.756;6.906;2022-09-14T13:18:23;20.60;;;18.83;;
52210;SDS011;38179;52.756;6.906;2022-09-14T13:20:57;20.05;;;18.42;;
52210;SDS011;38179;52.756;6.906;2022-09-14T13:28:19;19.33;;;17.85;;
52210;SDS011;38179;52.756;6.906;2022-09-14T13:30:58;20.27;;;18.52;;
52210;SDS011;38179;52.756;6.906;2022-09-14T13:33:26;19.77;;;18.10;;
52210;SDS011;38179;52.756;6.906;2022-09-14T13:35:55;19.48;;;18.08;;
52210;SDS011;38179;52.756;6.906;2022-09-14T13:38:24;20.35;;;18.73;;
52210;SDS011;38179;52.756;6.906;2022-09-14T13:40:55;19.58;;;18.13;;
52210;SDS011;38179;52.756;6.906;2022-09-14T13:43:28;19.95;;;18.45;;
52210;SDS011;38179;52.756;6.906;2022-09-14T13:45:55;20.20;;;18.55;;
52210;SDS011;38179;52.756;6.906;2022-09-14T13:48:21;20.15;;;18.35;;
52210;SDS011;38179;52.756;6.906;2022-09-14T13:50:48;19.90;;;18.25;;
52210;SDS011;38179;52.756;6.906;2022-09-14T13:56:14;19.75;;;18.15;;
52210;SDS011;38179;52.756;6.906;2022-09-14T13:58:42;20.05;;;18.30;;
52210;SDS011;38179;52.756;6.906;2022-09-14T14:01:07;20.20;;;18.60;;
52210;SDS011;38179;52.756;6.906;2022-09-14T14:03:37;19.98;;;18.38;;
52210;SDS011;38179;52.756;6.906;2022-09-14T14:08:59;19.55;;;18.15;;
52210;SDS011;38179;52.756;6.906;2022-09-14T14:11:32;20.88;;;19.05;;
52210;SDS011;38179;52.756;6.906;2022-09-14T14:16:41;20.25;;;18.42;;
52210;SDS011;38179;52.756;6.906;2022-09-14T14:19:35;20.35;;;18.75;;
52210;SDS011;38179;52.756;6.906;2022-09-14T14:24:48;20.20;;;18.52;;
52210;SDS011;38179;52.756;6.906;2022-09-14T14:27:28;19.92;;;18.35;;
52210;SDS011;38179;52.756;6.906;2022-09-14T14:29:57;19.92;;;18.42;;
52210;SDS011;38179;52.756;6.906;2022-09-14T14:32:28;20.13;;;18.58;;
52210;SDS011;38179;52.756;6.906;2022-09-14T14:34:55;20.17;;;18.67;;
52210;SDS011;38179;52.756;6.906;2022-09-14T14:37:21;20.85;;;19.10;;
52210;SDS011;38179;52.756;6.906;2022-09-14T14:39:47;19.98;;;18.42;;
52210;SDS011;38179;52.756;6.906;2022-09-14T14:42:14;20.00;;;18.40;;
52210;SDS011;38179;52.756;6.906;2022-09-14T14:44:40;20.30;;;18.70;;
52210;SDS011;38179;52.756;6.906;2022-09-14T14:47:09;21.02;;;19.17;;
52210;SDS011;38179;52.756;6.906;2022-09-14T14:52:02;19.92;;;18.30;;
52210;SDS011;38179;52.756;6.906;2022-09-14T14:54:28;20.08;;;18.52;;
52210;SDS011;38179;52.756;6.906;2022-09-14T14:56:54;20.38;;;18.77;;
52210;SDS011;38179;52.756;6.906;2022-09-14T15:01:46;20.33;;;18.52;;
52210;SDS011;38179;52.756;6.906;2022-09-14T15:04:14;19.98;;;18.27;;
52210;SDS011;38179;52.756;6.906;2022-09-14T15:06:39;21.25;;;19.55;;
52210;SDS011;38179;52.756;6.906;2022-09-14T15:09:08;19.65;;;18.15;;
52210;SDS011;38179;52.756;6.906;2022-09-14T15:11:38;20.27;;;18.77;;
52210;SDS011;38179;52.756;6.906;2022-09-14T15:14:07;20.45;;;18.75;;
52210;SDS011;38179;52.756;6.906;2022-09-14T15:16:38;20.38;;;18.55;;
52210;SDS011;38179;52.756;6.906;2022-09-14T15:19:04;20.45;;;18.63;;
52210;SDS011;38179;52.756;6.906;2022-09-14T15:21:30;20.45;;;18.85;;
52210;SDS011;38179;52.756;6.906;2022-09-14T15:23:56;20.17;;;18.38;;
52210;SDS011;38179;52.756;6.906;2022-09-14T15:26:23;20.70;;;18.90;;
52210;SDS011;38179;52.756;6.906;2022-09-14T15:28:50;21.02;;;19.15;;
52210;SDS011;38179;52.756;6.906;2022-09-14T15:31:16;20.45;;;18.65;;
52210;SDS011;38179;52.756;6.906;2022-09-14T15:33:43;21.10;;;19.25;;
52210;SDS011;38179;52.756;6.906;2022-09-14T15:36:08;20.55;;;18.52;;
52210;SDS011;38179;52.756;6.906;2022-09-14T15:38:35;20.13;;;18.42;;
52210;SDS011;38179;52.756;6.906;2022-09-14T15:41:01;20.73;;;18.98;;
52210;SDS011;38179;52.756;6.906;2022-09-14T15:43:27;20.35;;;18.70;;
52210;SDS011;38179;52.756;6.906;2022-09-14T15:45:53;19.90;;;18.30;;
52210;SDS011;38179;52.756;6.906;2022-09-14T15:48:19;20.63;;;18.80;;
52210;SDS011;38179;52.756;6.906;2022-09-14T15:50:46;20.88;;;18.80;;
52210;SDS011;38179;52.756;6.906;2022-09-14T15:53:13;20.77;;;19.00;;
52210;SDS011;38179;52.756;6.906;2022-09-14T15:55:42;20.55;;;18.95;;
52210;SDS011;38179;52.756;6.906;2022-09-14T15:58:09;20.80;;;19.10;;
52210;SDS011;38179;52.756;6.906;2022-09-14T16:00:35;20.13;;;18.52;;
52210;SDS011;38179;52.756;6.906;2022-09-14T16:03:02;20.05;;;18.30;;
52210;SDS011;38179;52.756;6.906;2022-09-14T16:05:29;20.63;;;18.92;;
52210;SDS011;38179;52.756;6.906;2022-09-14T16:07:55;20.30;;;18.60;;
52210;SDS011;38179;52.756;6.906;2022-09-14T16:10:22;20.52;;;18.73;;
52210;SDS011;38179;52.756;6.906;2022-09-14T16:12:51;19.88;;;18.38;;
52210;SDS011;38179;52.756;6.906;2022-09-14T16:15:18;20.55;;;18.90;;
52210;SDS011;38179;52.756;6.906;2022-09-14T16:17:48;20.48;;;18.77;;
52210;SDS011;38179;52.756;6.906;2022-09-14T16:20:15;21.08;;;19.05;;
52210;SDS011;38179;52.756;6.906;2022-09-14T16:22:41;20.23;;;18.63;;
52210;SDS011;38179;52.756;6.906;2022-09-14T16:25:07;21.08;;;19.08;;
52210;SDS011;38179;52.756;6.906;2022-09-14T16:27:33;22.10;;;20.08;;
52210;SDS011;38179;52.756;6.906;2022-09-14T16:29:59;20.63;;;18.95;;
52210;SDS011;38179;52.756;6.906;2022-09-14T16:32:25;20.27;;;18.52;;
52210;SDS011;38179;52.756;6.906;2022-09-14T16:34:51;21.27;;;19.38;;
52210;SDS011;38179;52.756;6.906;2022-09-14T16:37:17;20.77;;;18.98;;
52210;SDS011;38179;52.756;6.906;2022-09-14T16:39:43;21.15;;;19.05;;
52210;SDS011;38179;52.756;6.906;2022-09-14T16:42:09;20.67;;;18.98;;
52210;SDS011;38179;52.756;6.906;2022-09-14T16:44:35;21.13;;;19.23;;
52210;SDS011;38179;52.756;6.906;2022-09-14T16:47:01;21.00;;;19.17;;
52210;SDS011;38179;52.756;6.906;2022-09-14T16:49:26;21.10;;;19.30;;
52210;SDS011;38179;52.756;6.906;2022-09-14T16:51:53;20.83;;;19.00;;
52210;SDS011;38179;52.756;6.906;2022-09-14T16:54:20;20.45;;;18.75;;
52210;SDS011;38179;52.756;6.906;2022-09-14T16:56:47;20.05;;;18.13;;
52210;SDS011;38179;52.756;6.906;2022-09-14T16:59:13;21.25;;;18.88;;
52210;SDS011;38179;52.756;6.906;2022-09-14T17:01:41;20.67;;;18.30;;
52210;SDS011;38179;52.756;6.906;2022-09-14T17:04:13;20.05;;;18.35;;
52210;SDS011;38179;52.756;6.906;2022-09-14T17:06:41;20.08;;;18.48;;
52210;SDS011;38179;52.756;6.906;2022-09-14T17:09:12;20.38;;;18.77;;
52210;SDS011;38179;52.756;6.906;2022-09-14T17:11:40;20.55;;;18.85;;
52210;SDS011;38179;52.756;6.906;2022-09-14T17:14:07;21.13;;;19.15;;
52210;SDS011;38179;52.756;6.906;2022-09-14T17:16:51;22.38;;;19.60;;
52210;SDS011;38179;52.756;6.906;2022-09-14T17:19:17;20.83;;;19.02;;
52210;SDS011;38179;52.756;6.906;2022-09-14T17:21:43;20.25;;;18.65;;